Terminal Aerodrome Forecast
Issued by NWS Duluth, MN

Home | Current Version | Previous Version | Text Only | Print | Product List | Glossary On
Versions: 1 2 3 4 5 6 7 8 9 10 11 12 13 14 15 16 17 18
000
FTUS43 KDLH 242345
TAFINL
TAF
KINL 242345Z 2500/2524 03012KT P6SM SCT100
     FM250200 08006KT P6SM SCT080
     FM251500 10011KT P6SM BKN120
     FM251700 11011G18KT P6SM BKN080=

USA.gov is the U.S. government's official web portal to all federal, state and local government web resources and services.